sensor_id;sensor_type;location;lat;lon;timestamp;temperature;humidity
3954;DHT22;1991;48.682;9.030;2022-12-18T00:00:32;-10.30;99.90
3954;DHT22;1991;48.682;9.030;2022-12-18T00:02:57;-10.30;99.90
3954;DHT22;1991;48.682;9.030;2022-12-18T00:05:23;-10.30;99.90
3954;DHT22;1991;48.682;9.030;2022-12-18T00:07:48;-10.40;99.90
3954;DHT22;1991;48.682;9.030;2022-12-18T00:10:14;-10.40;99.90
3954;DHT22;1991;48.682;9.030;2022-12-18T00:12:40;-10.40;99.90
3954;DHT22;1991;48.682;9.030;2022-12-18T00:15:05;-10.40;99.90
3954;DHT22;1991;48.682;9.030;2022-12-18T00:17:31;-10.40;99.90
3954;DHT22;1991;48.682;9.030;2022-12-18T00:19:57;-10.40;99.90
3954;DHT22;1991;48.682;9.030;2022-12-18T00:22:22;-10.40;99.90
3954;DHT22;1991;48.682;9.030;2022-12-18T00:24:48;-10.40;99.90
3954;DHT22;1991;48.682;9.030;2022-12-18T00:27:13;-10.40;99.90
3954;DHT22;1991;48.682;9.030;2022-12-18T00:29:39;-10.50;99.90
3954;DHT22;1991;48.682;9.030;2022-12-18T00:32:04;-10.50;99.90
3954;DHT22;1991;48.682;9.030;2022-12-18T00:34:30;-10.50;99.90
3954;DHT22;1991;48.682;9.030;2022-12-18T00:36:55;-10.50;99.90
3954;DHT22;1991;48.682;9.030;2022-12-18T00:39:21;-10.50;99.90
3954;DHT22;1991;48.682;9.030;2022-12-18T00:41:46;-10.60;99.90
3954;DHT22;1991;48.682;9.030;2022-12-18T00:44:30;-10.60;99.90
3954;DHT22;1991;48.682;9.030;2022-12-18T00:46:56;-10.60;99.90
3954;DHT22;1991;48.682;9.030;2022-12-18T00:49:22;-10.60;99.90
3954;DHT22;1991;48.682;9.030;2022-12-18T00:51:47;-10.70;99.90
3954;DHT22;1991;48.682;9.030;2022-12-18T00:54:14;-10.70;99.90
3954;DHT22;1991;48.682;9.030;2022-12-18T00:56:40;-10.70;99.90
3954;DHT22;1991;48.682;9.030;2022-12-18T00:59:05;-10.70;99.90
3954;DHT22;1991;48.682;9.030;2022-12-18T01:01:31;-10.70;99.90
3954;DHT22;1991;48.682;9.030;2022-12-18T01:03:58;-10.70;99.90
3954;DHT22;1991;48.682;9.030;2022-12-18T01:06:24;-10.70;99.90
3954;DHT22;1991;48.682;9.030;2022-12-18T01:08:50;-10.70;99.90
3954;DHT22;1991;48.682;9.030;2022-12-18T01:11:19;-10.70;99.90
3954;DHT22;1991;48.682;9.030;2022-12-18T01:13:45;-10.60;99.90
3954;DHT22;1991;48.682;9.030;2022-12-18T01:16:12;-10.60;99.90
3954;DHT22;1991;48.682;9.030;2022-12-18T01:18:38;-10.60;99.90
3954;DHT22;1991;48.682;9.030;2022-12-18T01:21:08;-10.60;99.90
3954;DHT22;1991;48.682;9.030;2022-12-18T01:23:34;-10.60;99.90
3954;DHT22;1991;48.682;9.030;2022-12-18T01:26:12;-10.60;99.90
3954;DHT22;1991;48.682;9.030;2022-12-18T01:28:39;-10.60;99.90
3954;DHT22;1991;48.682;9.030;2022-12-18T01:31:28;-10.60;99.90
3954;DHT22;1991;48.682;9.030;2022-12-18T01:33:55;-10.60;99.90
3954;DHT22;1991;48.682;9.030;2022-12-18T01:36:27;-10.60;99.90
3954;DHT22;1991;48.682;9.030;2022-12-18T01:38:53;-10.50;99.90
3954;DHT22;1991;48.682;9.030;2022-12-18T01:41:24;-10.40;99.90
3954;DHT22;1991;48.682;9.030;2022-12-18T01:43:55;-10.30;99.90
3954;DHT22;1991;48.682;9.030;2022-12-18T01:46:23;-10.10;99.90
3954;DHT22;1991;48.682;9.030;2022-12-18T01:48:52;-10.00;99.90
3954;DHT22;1991;48.682;9.030;2022-12-18T01:51:19;-9.80;99.90
3954;DHT22;1991;48.682;9.030;2022-12-18T01:53:46;-9.60;99.90
3954;DHT22;1991;48.682;9.030;2022-12-18T01:56:14;-9.40;99.90
3954;DHT22;1991;48.682;9.030;2022-12-18T01:59:02;-9.10;99.90
3954;DHT22;1991;48.682;9.030;2022-12-18T02:01:30;-8.90;99.90
3954;DHT22;1991;48.682;9.030;2022-12-18T02:03:56;-8.80;99.90
3954;DHT22;1991;48.682;9.030;2022-12-18T02:06:41;-8.70;99.90
3954;DHT22;1991;48.682;9.030;2022-12-18T02:11:53;-8.70;99.90
3954;DHT22;1991;48.682;9.030;2022-12-18T02:24:52;-8.50;99.90
3954;DHT22;1991;48.682;9.030;2022-12-18T02:27:20;-8.50;99.90
3954;DHT22;1991;48.682;9.030;2022-12-18T02:29:53;-8.50;99.90
3954;DHT22;1991;48.682;9.030;2022-12-18T02:32:26;-8.50;99.90
3954;DHT22;1991;48.682;9.030;2022-12-18T02:34:55;-8.50;99.90
3954;DHT22;1991;48.682;9.030;2022-12-18T02:37:23;-8.50;99.90
3954;DHT22;1991;48.682;9.030;2022-12-18T02:39:49;-8.50;99.90
3954;DHT22;1991;48.682;9.030;2022-12-18T02:42:17;-8.60;99.90
3954;DHT22;1991;48.682;9.030;2022-12-18T02:44:46;-8.70;99.90
3954;DHT22;1991;48.682;9.030;2022-12-18T02:47:13;-8.80;99.90
3954;DHT22;1991;48.682;9.030;2022-12-18T02:52:59;-9.10;99.90
3954;DHT22;1991;48.682;9.030;2022-12-18T03:00:41;-9.30;99.90
3954;DHT22;1991;48.682;9.030;2022-12-18T03:03:25;-9.30;99.90
3954;DHT22;1991;48.682;9.030;2022-12-18T03:06:12;-9.30;99.90
3954;DHT22;1991;48.682;9.030;2022-12-18T03:08:43;-9.20;99.90
3954;DHT22;1991;48.682;9.030;2022-12-18T03:11:12;-9.20;99.90
3954;DHT22;1991;48.682;9.030;2022-12-18T03:13:48;-9.20;99.90
3954;DHT22;1991;48.682;9.030;2022-12-18T03:16:24;-9.20;99.90
3954;DHT22;1991;48.682;9.030;2022-12-18T03:18:55;-9.10;99.90
3954;DHT22;1991;48.682;9.030;2022-12-18T03:21:28;-9.20;99.90
3954;DHT22;1991;48.682;9.030;2022-12-18T03:23:55;-9.20;99.90
3954;DHT22;1991;48.682;9.030;2022-12-18T03:26:25;-9.20;99.90
3954;DHT22;1991;48.682;9.030;2022-12-18T03:28:56;-9.30;99.90
3954;DHT22;1991;48.682;9.030;2022-12-18T03:31:23;-9.20;99.90
3954;DHT22;1991;48.682;9.030;2022-12-18T03:33:55;-9.20;99.90
3954;DHT22;1991;48.682;9.030;2022-12-18T03:36:21;-9.30;99.90
3954;DHT22;1991;48.682;9.030;2022-12-18T03:38:48;-9.30;99.90
3954;DHT22;1991;48.682;9.030;2022-12-18T03:49:13;-9.40;99.90
3954;DHT22;1991;48.682;9.030;2022-12-18T03:52:06;-9.50;99.90
3954;DHT22;1991;48.682;9.030;2022-12-18T03:54:35;-9.50;99.90
3954;DHT22;1991;48.682;9.030;2022-12-18T03:57:07;-9.60;99.90
3954;DHT22;1991;48.682;9.030;2022-12-18T03:59:36;-9.60;99.90
3954;DHT22;1991;48.682;9.030;2022-12-18T04:02:04;-9.70;99.90
3954;DHT22;1991;48.682;9.030;2022-12-18T04:04:30;-9.70;99.90
3954;DHT22;1991;48.682;9.030;2022-12-18T04:06:57;-9.70;99.90
3954;DHT22;1991;48.682;9.030;2022-12-18T04:09:24;-9.70;99.90
3954;DHT22;1991;48.682;9.030;2022-12-18T04:11:51;-9.70;99.90
3954;DHT22;1991;48.682;9.030;2022-12-18T04:14:17;-9.80;99.90
3954;DHT22;1991;48.682;9.030;2022-12-18T04:16:42;-9.80;99.90
3954;DHT22;1991;48.682;9.030;2022-12-18T04:19:08;-9.80;99.90
3954;DHT22;1991;48.682;9.030;2022-12-18T04:21:33;-9.80;99.90
3954;DHT22;1991;48.682;9.030;2022-12-18T04:24:00;-9.80;99.90
3954;DHT22;1991;48.682;9.030;2022-12-18T04:26:25;-9.80;99.90
3954;DHT22;1991;48.682;9.030;2022-12-18T04:28:51;-9.80;99.90
3954;DHT22;1991;48.682;9.030;2022-12-18T04:31:16;-9.80;99.90
3954;DHT22;1991;48.682;9.030;2022-12-18T04:33:42;-9.80;99.90
3954;DHT22;1991;48.682;9.030;2022-12-18T04:36:07;-9.80;99.90
3954;DHT22;1991;48.682;9.030;2022-12-18T04:38:33;-9.70;99.90
3954;DHT22;1991;48.682;9.030;2022-12-18T04:40:59;-9.80;99.90
3954;DHT22;1991;48.682;9.030;2022-12-18T04:43:24;-9.80;99.90
3954;DHT22;1991;48.682;9.030;2022-12-18T04:45:50;-9.80;99.90
3954;DHT22;1991;48.682;9.030;2022-12-18T04:48:16;-9.80;99.90
3954;DHT22;1991;48.682;9.030;2022-12-18T04:50:41;-9.90;99.90
3954;DHT22;1991;48.682;9.030;2022-12-18T04:53:07;-9.90;99.90
3954;DHT22;1991;48.682;9.030;2022-12-18T04:55:32;-9.90;99.90
3954;DHT22;1991;48.682;9.030;2022-12-18T04:57:58;-10.00;99.90
3954;DHT22;1991;48.682;9.030;2022-12-18T05:00:23;-10.00;99.90
3954;DHT22;1991;48.682;9.030;2022-12-18T05:02:49;-10.00;99.90
3954;DHT22;1991;48.682;9.030;2022-12-18T05:05:15;-10.00;99.90
3954;DHT22;1991;48.682;9.030;2022-12-18T05:07:40;-10.10;99.90
3954;DHT22;1991;48.682;9.030;2022-12-18T05:13:21;-10.10;99.90
3954;DHT22;1991;48.682;9.030;2022-12-18T05:15:52;-10.00;99.90
3954;DHT22;1991;48.682;9.030;2022-12-18T05:18:17;-10.10;99.90
3954;DHT22;1991;48.682;9.030;2022-12-18T05:20:43;-10.00;99.90
3954;DHT22;1991;48.682;9.030;2022-12-18T05:23:08;-10.00;99.90
3954;DHT22;1991;48.682;9.030;2022-12-18T05:25:34;-10.10;99.90
3954;DHT22;1991;48.682;9.030;2022-12-18T05:27:59;-10.10;99.90
3954;DHT22;1991;48.682;9.030;2022-12-18T05:30:25;-10.10;99.90
3954;DHT22;1991;48.682;9.030;2022-12-18T05:32:51;-10.20;99.90
3954;DHT22;1991;48.682;9.030;2022-12-18T05:35:16;-10.20;99.90
3954;DHT22;1991;48.682;9.030;2022-12-18T05:37:42;-10.20;99.90
3954;DHT22;1991;48.682;9.030;2022-12-18T05:40:08;-10.30;99.90
3954;DHT22;1991;48.682;9.030;2022-12-18T05:42:33;-10.30;99.90
3954;DHT22;1991;48.682;9.030;2022-12-18T05:44:59;-10.30;99.90
3954;DHT22;1991;48.682;9.030;2022-12-18T05:47:25;-10.30;99.90
3954;DHT22;1991;48.682;9.030;2022-12-18T05:49:51;-10.30;99.90
3954;DHT22;1991;48.682;9.030;2022-12-18T05:52:17;-10.30;99.90
3954;DHT22;1991;48.682;9.030;2022-12-18T05:54:42;-10.30;99.90
3954;DHT22;1991;48.682;9.030;2022-12-18T05:57:08;-10.30;99.90
3954;DHT22;1991;48.682;9.030;2022-12-18T05:59:34;-10.30;99.90
3954;DHT22;1991;48.682;9.030;2022-12-18T06:01:59;-10.30;99.90
3954;DHT22;1991;48.682;9.030;2022-12-18T06:04:27;-10.30;99.90
3954;DHT22;1991;48.682;9.030;2022-12-18T06:06:53;-10.30;99.90
3954;DHT22;1991;48.682;9.030;2022-12-18T06:09:18;-10.30;99.90
3954;DHT22;1991;48.682;9.030;2022-12-18T06:11:44;-10.30;99.90
3954;DHT22;1991;48.682;9.030;2022-12-18T06:14:09;-10.30;99.90
3954;DHT22;1991;48.682;9.030;2022-12-18T06:16:35;-10.30;99.90
3954;DHT22;1991;48.682;9.030;2022-12-18T06:19:03;-10.30;99.90
3954;DHT22;1991;48.682;9.030;2022-12-18T06:21:30;-10.30;99.90
3954;DHT22;1991;48.682;9.030;2022-12-18T06:23:55;-10.30;99.90
3954;DHT22;1991;48.682;9.030;2022-12-18T06:26:21;-10.30;99.90
3954;DHT22;1991;48.682;9.030;2022-12-18T06:28:47;-10.40;99.90
3954;DHT22;1991;48.682;9.030;2022-12-18T06:34:36;-10.30;99.90
3954;DHT22;1991;48.682;9.030;2022-12-18T06:37:02;-10.40;99.90
3954;DHT22;1991;48.682;9.030;2022-12-18T06:39:46;-10.40;99.90
3954;DHT22;1991;48.682;9.030;2022-12-18T06:42:12;-10.40;99.90
3954;DHT22;1991;48.682;9.030;2022-12-18T06:44:37;-10.40;99.90
3954;DHT22;1991;48.682;9.030;2022-12-18T06:47:03;-10.30;99.90
3954;DHT22;1991;48.682;9.030;2022-12-18T06:49:28;-10.30;99.90
3954;DHT22;1991;48.682;9.030;2022-12-18T06:51:54;-10.30;99.90
3954;DHT22;1991;48.682;9.030;2022-12-18T06:54:19;-10.30;99.90
3954;DHT22;1991;48.682;9.030;2022-12-18T06:56:46;-10.30;99.90
3954;DHT22;1991;48.682;9.030;2022-12-18T06:59:12;-10.20;99.90
3954;DHT22;1991;48.682;9.030;2022-12-18T07:01:38;-10.20;99.90
3954;DHT22;1991;48.682;9.030;2022-12-18T07:04:04;-10.20;99.90
3954;DHT22;1991;48.682;9.030;2022-12-18T07:06:29;-10.20;99.90
3954;DHT22;1991;48.682;9.030;2022-12-18T07:08:55;-10.20;99.90
3954;DHT22;1991;48.682;9.030;2022-12-18T07:11:20;-10.10;99.90
3954;DHT22;1991;48.682;9.030;2022-12-18T07:13:46;-10.10;99.90
3954;DHT22;1991;48.682;9.030;2022-12-18T07:16:17;-10.10;99.90
3954;DHT22;1991;48.682;9.030;2022-12-18T07:18:43;-10.10;99.90
3954;DHT22;1991;48.682;9.030;2022-12-18T07:21:11;-10.00;99.90
3954;DHT22;1991;48.682;9.030;2022-12-18T07:23:37;-9.90;99.90
3954;DHT22;1991;48.682;9.030;2022-12-18T07:26:08;-9.80;99.90
3954;DHT22;1991;48.682;9.030;2022-12-18T07:28:35;-9.70;99.90
3954;DHT22;1991;48.682;9.030;2022-12-18T07:31:09;-9.60;99.90
3954;DHT22;1991;48.682;9.030;2022-12-18T07:33:35;-9.50;99.90
3954;DHT22;1991;48.682;9.030;2022-12-18T07:36:01;-9.40;99.90
3954;DHT22;1991;48.682;9.030;2022-12-18T07:38:28;-9.30;99.90
3954;DHT22;1991;48.682;9.030;2022-12-18T07:40:54;-9.20;99.90
3954;DHT22;1991;48.682;9.030;2022-12-18T07:43:19;-9.10;99.90
3954;DHT22;1991;48.682;9.030;2022-12-18T07:45:45;-9.00;99.90
3954;DHT22;1991;48.682;9.030;2022-12-18T07:48:10;-8.80;99.90
3954;DHT22;1991;48.682;9.030;2022-12-18T07:50:37;-8.70;99.90
3954;DHT22;1991;48.682;9.030;2022-12-18T07:53:02;-8.50;99.90
3954;DHT22;1991;48.682;9.030;2022-12-18T07:55:31;-8.50;99.90
3954;DHT22;1991;48.682;9.030;2022-12-18T07:57:56;-8.30;99.90
3954;DHT22;1991;48.682;9.030;2022-12-18T08:00:22;-8.30;99.90
3954;DHT22;1991;48.682;9.030;2022-12-18T08:02:48;-8.10;99.90
3954;DHT22;1991;48.682;9.030;2022-12-18T08:05:13;-7.90;99.90
3954;DHT22;1991;48.682;9.030;2022-12-18T08:07:39;-7.70;99.90
3954;DHT22;1991;48.682;9.030;2022-12-18T08:10:06;-7.30;99.90
3954;DHT22;1991;48.682;9.030;2022-12-18T08:12:32;-7.00;99.90
3954;DHT22;1991;48.682;9.030;2022-12-18T08:14:57;-6.50;99.90
3954;DHT22;1991;48.682;9.030;2022-12-18T08:17:23;-5.90;99.90
3954;DHT22;1991;48.682;9.030;2022-12-18T08:19:48;-5.00;99.90
3954;DHT22;1991;48.682;9.030;2022-12-18T08:22:14;-3.10;99.90
3954;DHT22;1991;48.682;9.030;2022-12-18T08:24:39;-0.80;99.90
3954;DHT22;1991;48.682;9.030;2022-12-18T08:27:05;1.10;95.60
3954;DHT22;1991;48.682;9.030;2022-12-18T08:29:30;2.00;86.00
3954;DHT22;1991;48.682;9.030;2022-12-18T08:31:57;2.10;78.90
3954;DHT22;1991;48.682;9.030;2022-12-18T08:34:23;3.50;73.40
3954;DHT22;1991;48.682;9.030;2022-12-18T08:36:48;4.90;65.40
3954;DHT22;1991;48.682;9.030;2022-12-18T08:39:14;6.40;58.90
3954;DHT22;1991;48.682;9.030;2022-12-18T08:41:39;7.70;53.80
3954;DHT22;1991;48.682;9.030;2022-12-18T08:44:07;8.40;50.10
3954;DHT22;1991;48.682;9.030;2022-12-18T08:46:51;9.10;48.00
3954;DHT22;1991;48.682;9.030;2022-12-18T08:49:17;10.20;45.90
3954;DHT22;1991;48.682;9.030;2022-12-18T08:51:42;11.10;42.60
3954;DHT22;1991;48.682;9.030;2022-12-18T08:54:11;11.50;41.10
3954;DHT22;1991;48.682;9.030;2022-12-18T08:56:36;11.90;40.80
3954;DHT22;1991;48.682;9.030;2022-12-18T08:59:02;12.70;39.50
3954;DHT22;1991;48.682;9.030;2022-12-18T09:01:29;13.40;38.20
3954;DHT22;1991;48.682;9.030;2022-12-18T09:03:55;14.20;37.00
3954;DHT22;1991;48.682;9.030;2022-12-18T09:06:21;14.90;36.00
3954;DHT22;1991;48.682;9.030;2022-12-18T09:08:47;15.60;34.90
3954;DHT22;1991;48.682;9.030;2022-12-18T09:11:15;16.00;33.60
3954;DHT22;1991;48.682;9.030;2022-12-18T09:13:43;15.60;33.70
3954;DHT22;1991;48.682;9.030;2022-12-18T09:16:09;15.30;33.20
3954;DHT22;1991;48.682;9.030;2022-12-18T09:18:35;15.40;33.30
3954;DHT22;1991;48.682;9.030;2022-12-18T09:21:17;15.40;33.70
3954;DHT22;1991;48.682;9.030;2022-12-18T09:23:44;15.80;33.60
3954;DHT22;1991;48.682;9.030;2022-12-18T09:26:10;16.90;32.40
3954;DHT22;1991;48.682;9.030;2022-12-18T09:28:36;17.00;32.10
3954;DHT22;1991;48.682;9.030;2022-12-18T09:31:06;16.70;32.30
3954;DHT22;1991;48.682;9.030;2022-12-18T09:33:33;17.20;31.80
3954;DHT22;1991;48.682;9.030;2022-12-18T09:36:01;17.80;30.90
3954;DHT22;1991;48.682;9.030;2022-12-18T09:38:27;18.60;30.40
3954;DHT22;1991;48.682;9.030;2022-12-18T09:40:55;19.60;30.00
3954;DHT22;1991;48.682;9.030;2022-12-18T09:43:31;19.70;29.50
3954;DHT22;1991;48.682;9.030;2022-12-18T09:46:02;19.90;29.10
3954;DHT22;1991;48.682;9.030;2022-12-18T09:48:31;20.40;28.80
3954;DHT22;1991;48.682;9.030;2022-12-18T09:51:05;20.60;28.40
3954;DHT22;1991;48.682;9.030;2022-12-18T09:53:35;20.20;28.40
3954;DHT22;1991;48.682;9.030;2022-12-18T09:56:04;21.20;28.10
3954;DHT22;1991;48.682;9.030;2022-12-18T09:58:41;20.60;27.80
3954;DHT22;1991;48.682;9.030;2022-12-18T10:01:15;19.20;28.50
3954;DHT22;1991;48.682;9.030;2022-12-18T10:03:41;19.80;28.90
3954;DHT22;1991;48.682;9.030;2022-12-18T10:06:32;20.20;28.90
3954;DHT22;1991;48.682;9.030;2022-12-18T10:11:54;20.80;28.70
3954;DHT22;1991;48.682;9.030;2022-12-18T10:14:50;21.40;27.50
3954;DHT22;1991;48.682;9.030;2022-12-18T10:20:19;21.80;27.30
3954;DHT22;1991;48.682;9.030;2022-12-18T10:23:18;22.30;27.40
3954;DHT22;1991;48.682;9.030;2022-12-18T10:26:08;21.90;27.60
3954;DHT22;1991;48.682;9.030;2022-12-18T10:28:39;23.10;27.20
3954;DHT22;1991;48.682;9.030;2022-12-18T10:31:19;22.50;26.70
3954;DHT22;1991;48.682;9.030;2022-12-18T10:33:45;21.60;27.00
3954;DHT22;1991;48.682;9.030;2022-12-18T10:36:10;22.00;27.00
3954;DHT22;1991;48.682;9.030;2022-12-18T10:38:36;22.30;26.70
3954;DHT22;1991;48.682;9.030;2022-12-18T10:41:05;21.80;26.80
3954;DHT22;1991;48.682;9.030;2022-12-18T10:43:42;21.90;27.30
3954;DHT22;1991;48.682;9.030;2022-12-18T10:48:36;21.80;27.60
3954;DHT22;1991;48.682;9.030;2022-12-18T10:51:06;20.60;27.10
3954;DHT22;1991;48.682;9.030;2022-12-18T10:53:33;19.90;27.90
3954;DHT22;1991;48.682;9.030;2022-12-18T10:56:04;19.70;28.30
3954;DHT22;1991;48.682;9.030;2022-12-18T10:58:32;20.10;28.70
3954;DHT22;1991;48.682;9.030;2022-12-18T11:01:17;20.10;28.70
3954;DHT22;1991;48.682;9.030;2022-12-18T11:04:08;20.10;28.30
3954;DHT22;1991;48.682;9.030;2022-12-18T11:06:34;20.60;27.70
3954;DHT22;1991;48.682;9.030;2022-12-18T11:09:20;20.40;28.00
3954;DHT22;1991;48.682;9.030;2022-12-18T11:11:56;20.80;27.90
3954;DHT22;1991;48.682;9.030;2022-12-18T11:14:34;20.80;27.90
3954;DHT22;1991;48.682;9.030;2022-12-18T11:19:43;22.70;26.80
3954;DHT22;1991;48.682;9.030;2022-12-18T11:22:29;22.90;26.50
3954;DHT22;1991;48.682;9.030;2022-12-18T11:24:59;23.10;26.50
3954;DHT22;1991;48.682;9.030;2022-12-18T11:27:26;23.80;26.20
3954;DHT22;1991;48.682;9.030;2022-12-18T11:30:13;23.80;25.80
3954;DHT22;1991;48.682;9.030;2022-12-18T11:33:16;23.10;26.20
3954;DHT22;1991;48.682;9.030;2022-12-18T11:35:53;21.50;27.40
3954;DHT22;1991;48.682;9.030;2022-12-18T11:38:26;20.70;27.70
3954;DHT22;1991;48.682;9.030;2022-12-18T11:43:59;20.70;27.60
3954;DHT22;1991;48.682;9.030;2022-12-18T11:46:39;20.30;27.80
3954;DHT22;1991;48.682;9.030;2022-12-18T11:49:17;19.80;28.60
3954;DHT22;1991;48.682;9.030;2022-12-18T11:52:01;19.10;28.80
3954;DHT22;1991;48.682;9.030;2022-12-18T11:54:28;19.40;29.30
3954;DHT22;1991;48.682;9.030;2022-12-18T12:30:53;12.40;36.00
3954;DHT22;1991;48.682;9.030;2022-12-18T12:36:21;11.00;38.70
3954;DHT22;1991;48.682;9.030;2022-12-18T12:38:51;10.90;39.50
3954;DHT22;1991;48.682;9.030;2022-12-18T12:41:22;10.70;40.20
3954;DHT22;1991;48.682;9.030;2022-12-18T12:44:12;10.50;40.60
3954;DHT22;1991;48.682;9.030;2022-12-18T12:46:40;10.40;41.00
3954;DHT22;1991;48.682;9.030;2022-12-18T12:49:17;10.20;41.10
3954;DHT22;1991;48.682;9.030;2022-12-18T12:51:47;10.10;41.50
3954;DHT22;1991;48.682;9.030;2022-12-18T12:54:21;9.60;42.10
3954;DHT22;1991;48.682;9.030;2022-12-18T12:57:14;9.50;43.40
3954;DHT22;1991;48.682;9.030;2022-12-18T12:59:47;9.50;43.40
3954;DHT22;1991;48.682;9.030;2022-12-18T13:02:33;9.70;43.40
3954;DHT22;1991;48.682;9.030;2022-12-18T13:08:08;9.90;43.60
3954;DHT22;1991;48.682;9.030;2022-12-18T13:10:43;9.80;43.90
3954;DHT22;1991;48.682;9.030;2022-12-18T13:13:11;9.80;43.70
3954;DHT22;1991;48.682;9.030;2022-12-18T13:15:41;9.50;43.40
3954;DHT22;1991;48.682;9.030;2022-12-18T13:25:52;8.20;46.40
3954;DHT22;1991;48.682;9.030;2022-12-18T13:31:58;7.50;49.10
3954;DHT22;1991;48.682;9.030;2022-12-18T13:36:38;7.10;50.60
3954;DHT22;1991;48.682;9.030;2022-12-18T13:41:41;6.60;51.60
3954;DHT22;1991;48.682;9.030;2022-12-18T13:44:13;6.60;52.20
3954;DHT22;1991;48.682;9.030;2022-12-18T13:46:45;6.60;52.30
3954;DHT22;1991;48.682;9.030;2022-12-18T13:51:44;6.60;52.60
3954;DHT22;1991;48.682;9.030;2022-12-18T13:56:49;6.70;52.70
3954;DHT22;1991;48.682;9.030;2022-12-18T13:59:24;6.20;53.10
3954;DHT22;1991;48.682;9.030;2022-12-18T14:01:58;6.00;54.30
3954;DHT22;1991;48.682;9.030;2022-12-18T14:04:29;5.20;56.00
3954;DHT22;1991;48.682;9.030;2022-12-18T14:06:58;5.00;56.80
3954;DHT22;1991;48.682;9.030;2022-12-18T14:09:29;4.80;57.30
3954;DHT22;1991;48.682;9.030;2022-12-18T14:11:56;4.50;58.60
3954;DHT22;1991;48.682;9.030;2022-12-18T14:14:48;4.20;59.90
3954;DHT22;1991;48.682;9.030;2022-12-18T14:17:16;3.90;60.60
3954;DHT22;1991;48.682;9.030;2022-12-18T14:19:47;3.80;61.20
3954;DHT22;1991;48.682;9.030;2022-12-18T14:22:24;3.60;62.10
3954;DHT22;1991;48.682;9.030;2022-12-18T14:28:28;3.20;63.80
3954;DHT22;1991;48.682;9.030;2022-12-18T14:30:32;2.90;65.00
3954;DHT22;1991;48.682;9.030;2022-12-18T14:33:05;2.80;65.90
3954;DHT22;1991;48.682;9.030;2022-12-18T14:35:33;2.50;67.10
3954;DHT22;1991;48.682;9.030;2022-12-18T14:38:35;2.20;68.70
3954;DHT22;1991;48.682;9.030;2022-12-18T14:41:03;1.90;69.60
3954;DHT22;1991;48.682;9.030;2022-12-18T14:43:35;1.60;71.30
3954;DHT22;1991;48.682;9.030;2022-12-18T14:46:02;1.40;72.60
3954;DHT22;1991;48.682;9.030;2022-12-18T14:48:42;1.20;74.20
3954;DHT22;1991;48.682;9.030;2022-12-18T14:51:28;1.00;76.30
3954;DHT22;1991;48.682;9.030;2022-12-18T14:53:57;0.70;79.40
3954;DHT22;1991;48.682;9.030;2022-12-18T14:58:54;0.30;86.50
3954;DHT22;1991;48.682;9.030;2022-12-18T15:01:36;0.10;90.30
3954;DHT22;1991;48.682;9.030;2022-12-18T15:04:04;-0.10;92.50
3954;DHT22;1991;48.682;9.030;2022-12-18T15:06:32;-0.30;94.50
3954;DHT22;1991;48.682;9.030;2022-12-18T15:09:00;-0.60;96.60
3954;DHT22;1991;48.682;9.030;2022-12-18T15:14:40;-1.00;99.90
3954;DHT22;1991;48.682;9.030;2022-12-18T15:17:18;-1.20;99.90
3954;DHT22;1991;48.682;9.030;2022-12-18T15:19:45;-1.40;99.90
3954;DHT22;1991;48.682;9.030;2022-12-18T15:24:46;-1.40;99.90
3954;DHT22;1991;48.682;9.030;2022-12-18T15:27:31;-1.60;99.90
3954;DHT22;1991;48.682;9.030;2022-12-18T15:32:37;-1.90;99.90
3954;DHT22;1991;48.682;9.030;2022-12-18T15:37:34;-2.20;99.90
3954;DHT22;1991;48.682;9.030;2022-12-18T15:40:00;-2.30;99.90
3954;DHT22;1991;48.682;9.030;2022-12-18T15:42:27;-2.40;99.90
3954;DHT22;1991;48.682;9.030;2022-12-18T15:45:12;-2.50;99.90
3954;DHT22;1991;48.682;9.030;2022-12-18T15:47:39;-2.60;99.90
3954;DHT22;1991;48.682;9.030;2022-12-18T15:50:05;-2.60;99.90
3954;DHT22;1991;48.682;9.030;2022-12-18T15:52:40;-2.70;99.90
3954;DHT22;1991;48.682;9.030;2022-12-18T15:55:21;-2.80;99.90
3954;DHT22;1991;48.682;9.030;2022-12-18T15:58:07;-2.80;99.90
3954;DHT22;1991;48.682;9.030;2022-12-18T16:00:34;-2.90;99.90
3954;DHT22;1991;48.682;9.030;2022-12-18T16:03:01;-2.90;99.90
3954;DHT22;1991;48.682;9.030;2022-12-18T16:05:27;-2.90;99.90
3954;DHT22;1991;48.682;9.030;2022-12-18T16:07:53;-2.90;99.90
3954;DHT22;1991;48.682;9.030;2022-12-18T16:10:19;-2.90;99.90
3954;DHT22;1991;48.682;9.030;2022-12-18T16:12:45;-2.90;99.90
3954;DHT22;1991;48.682;9.030;2022-12-18T16:15:13;-2.90;99.90
3954;DHT22;1991;48.682;9.030;2022-12-18T16:17:41;-2.80;99.90
3954;DHT22;1991;48.682;9.030;2022-12-18T16:20:16;-2.80;99.90
3954;DHT22;1991;48.682;9.030;2022-12-18T16:22:43;-2.80;99.90
3954;DHT22;1991;48.682;9.030;2022-12-18T16:25:22;-2.70;99.90
3954;DHT22;1991;48.682;9.030;2022-12-18T16:27:48;-2.70;99.90
3954;DHT22;1991;48.682;9.030;2022-12-18T16:30:16;-2.60;99.90
3954;DHT22;1991;48.682;9.030;2022-12-18T16:32:42;-2.60;99.90
3954;DHT22;1991;48.682;9.030;2022-12-18T16:35:10;-2.60;99.90
3954;DHT22;1991;48.682;9.030;2022-12-18T16:37:36;-2.60;99.90
3954;DHT22;1991;48.682;9.030;2022-12-18T16:40:02;-2.60;99.90
3954;DHT22;1991;48.682;9.030;2022-12-18T16:42:27;-2.60;99.90
3954;DHT22;1991;48.682;9.030;2022-12-18T16:44:53;-2.50;99.90
3954;DHT22;1991;48.682;9.030;2022-12-18T16:47:19;-2.50;99.90
3954;DHT22;1991;48.682;9.030;2022-12-18T16:49:45;-2.40;99.90
3954;DHT22;1991;48.682;9.030;2022-12-18T16:52:11;-2.40;99.90
3954;DHT22;1991;48.682;9.030;2022-12-18T16:54:36;-2.30;99.90
3954;DHT22;1991;48.682;9.030;2022-12-18T16:57:03;-2.00;99.90
3954;DHT22;1991;48.682;9.030;2022-12-18T16:59:30;-1.90;99.90
3954;DHT22;1991;48.682;9.030;2022-12-18T17:01:55;-2.00;99.90
3954;DHT22;1991;48.682;9.030;2022-12-18T17:04:21;-2.00;99.90
3954;DHT22;1991;48.682;9.030;2022-12-18T17:06:47;-2.00;99.90
3954;DHT22;1991;48.682;9.030;2022-12-18T17:09:19;-2.00;99.90
3954;DHT22;1991;48.682;9.030;2022-12-18T17:11:49;-2.10;99.90
3954;DHT22;1991;48.682;9.030;2022-12-18T17:14:18;-2.00;99.90
3954;DHT22;1991;48.682;9.030;2022-12-18T17:16:45;-2.10;99.90
3954;DHT22;1991;48.682;9.030;2022-12-18T17:19:11;-2.10;99.90
3954;DHT22;1991;48.682;9.030;2022-12-18T17:21:37;-2.10;99.90
3954;DHT22;1991;48.682;9.030;2022-12-18T17:24:03;-2.20;99.90
3954;DHT22;1991;48.682;9.030;2022-12-18T17:26:29;-2.20;99.90
3954;DHT22;1991;48.682;9.030;2022-12-18T17:28:58;-2.20;99.90
3954;DHT22;1991;48.682;9.030;2022-12-18T17:31:26;-2.20;99.90
3954;DHT22;1991;48.682;9.030;2022-12-18T17:33:52;-2.30;99.90
3954;DHT22;1991;48.682;9.030;2022-12-18T17:36:18;-2.20;99.90
3954;DHT22;1991;48.682;9.030;2022-12-18T17:38:50;-2.30;99.90
3954;DHT22;1991;48.682;9.030;2022-12-18T17:41:16;-2.30;99.90
3954;DHT22;1991;48.682;9.030;2022-12-18T17:43:42;-2.30;99.90
3954;DHT22;1991;48.682;9.030;2022-12-18T17:46:11;-2.30;99.90
3954;DHT22;1991;48.682;9.030;2022-12-18T17:48:37;-2.30;99.90
3954;DHT22;1991;48.682;9.030;2022-12-18T17:51:08;-2.30;99.90
3954;DHT22;1991;48.682;9.030;2022-12-18T17:53:34;-2.30;99.90
3954;DHT22;1991;48.682;9.030;2022-12-18T17:56:00;-2.30;99.90
3954;DHT22;1991;48.682;9.030;2022-12-18T17:58:29;-2.30;99.90
3954;DHT22;1991;48.682;9.030;2022-12-18T18:00:57;-2.30;99.90
3954;DHT22;1991;48.682;9.030;2022-12-18T18:03:23;-2.30;99.90
3954;DHT22;1991;48.682;9.030;2022-12-18T18:05:53;-2.40;99.90
3954;DHT22;1991;48.682;9.030;2022-12-18T18:08:19;-2.40;99.90
3954;DHT22;1991;48.682;9.030;2022-12-18T18:10:44;-2.30;99.90
3954;DHT22;1991;48.682;9.030;2022-12-18T18:13:20;-2.30;99.90
3954;DHT22;1991;48.682;9.030;2022-12-18T18:16:05;-2.30;99.90
3954;DHT22;1991;48.682;9.030;2022-12-18T18:18:31;-2.30;99.90
3954;DHT22;1991;48.682;9.030;2022-12-18T18:20:57;-2.40;99.90